createdAt,value
2017-09-25T00:00:16.309Z,1015.79
2017-09-25T00:00:56.837Z,1015.78
2017-09-25T00:01:37.351Z,1015.77
2017-09-25T00:02:17.873Z,1015.81
2017-09-25T00:02:58.410Z,1015.79
2017-09-25T00:03:38.949Z,1015.76
2017-09-25T00:04:19.489Z,1015.73
2017-09-25T00:05:00.025Z,1015.76
2017-09-25T00:05:40.557Z,1015.8
2017-09-25T00:06:21.092Z,1015.76
2017-09-25T00:07:01.626Z,1015.76
2017-09-25T00:07:42.162Z,1015.79
2017-09-25T00:08:22.703Z,1015.75
2017-09-25T00:09:03.238Z,1015.74
2017-09-25T00:09:43.817Z,1015.7
2017-09-25T00:10:24.354Z,1015.7
2017-09-25T00:11:04.900Z,1015.73
2017-09-25T00:11:45.436Z,1015.71
2017-09-25T00:12:25.967Z,1015.7
2017-09-25T00:13:06.501Z,1015.72
2017-09-25T00:13:47.034Z,1015.7
2017-09-25T00:14:27.563Z,1015.65
2017-09-25T00:15:08.100Z,1015.68
2017-09-25T00:15:48.637Z,1015.67
2017-09-25T00:16:29.166Z,1015.7
2017-09-25T00:17:09.693Z,1015.67
2017-09-25T00:17:50.231Z,1015.71
2017-09-25T00:18:30.767Z,1015.72
2017-09-25T00:19:11.309Z,1015.71
2017-09-25T00:19:51.844Z,1015.68
2017-09-25T00:20:32.358Z,1015.69
2017-09-25T00:21:12.914Z,1015.69
2017-09-25T00:21:53.426Z,1015.67
2017-09-25T00:22:33.964Z,1015.7
2017-09-25T00:23:14.491Z,1015.7
2017-09-25T00:23:55.033Z,1015.7
2017-09-25T00:24:35.568Z,1015.74
2017-09-25T00:25:16.112Z,1015.73
2017-09-25T00:25:56.631Z,1015.69
2017-09-25T00:26:37.157Z,1015.73
2017-09-25T00:27:17.681Z,1015.71
2017-09-25T00:27:58.205Z,1015.69
2017-09-25T00:28:38.728Z,1015.69
2017-09-25T00:29:19.256Z,1015.71
2017-09-25T00:29:59.772Z,1015.72
2017-09-25T00:30:40.318Z,1015.66
2017-09-25T00:31:20.816Z,1015.68
2017-09-25T00:32:01.338Z,1015.67
2017-09-25T00:32:41.861Z,1015.72
2017-09-25T00:33:22.393Z,1015.68
2017-09-25T00:34:02.937Z,1015.67
2017-09-25T00:34:43.469Z,1015.64
2017-09-25T00:35:24.004Z,1015.69
2017-09-25T00:36:04.527Z,1015.71
2017-09-25T00:36:45.058Z,1015.64
2017-09-25T00:37:25.590Z,1015.64
2017-09-25T00:38:06.122Z,1015.67
2017-09-25T00:38:46.655Z,1015.64
2017-09-25T00:39:27.191Z,1015.64
2017-09-25T00:40:07.726Z,1015.66
2017-09-25T00:40:48.251Z,1015.64
2017-09-25T00:41:28.770Z,1015.61
2017-09-25T00:42:09.305Z,1015.65
2017-09-25T00:42:49.843Z,1015.65
2017-09-25T00:43:30.434Z,1015.65
2017-09-25T00:44:10.986Z,1015.63
2017-09-25T00:44:51.521Z,1015.62
2017-09-25T00:45:32.016Z,1015.63
2017-09-25T00:46:12.553Z,1015.64
2017-09-25T00:46:53.093Z,1015.64
2017-09-25T00:47:33.633Z,1015.64
2017-09-25T00:48:14.172Z,1015.63
2017-09-25T00:48:54.707Z,1015.65
2017-09-25T00:49:35.240Z,1015.65
2017-09-25T00:50:15.775Z,1015.64
2017-09-25T00:50:56.307Z,1015.66
2017-09-25T00:51:36.846Z,1015.64
2017-09-25T00:52:17.381Z,1015.67
2017-09-25T00:52:57.920Z,1015.71
2017-09-25T00:53:38.445Z,1015.68
2017-09-25T00:54:18.986Z,1015.69
2017-09-25T00:54:59.523Z,1015.66
2017-09-25T00:55:40.057Z,1015.65
2017-09-25T00:56:20.602Z,1015.64
2017-09-25T00:57:01.137Z,1015.64
2017-09-25T00:57:41.672Z,1015.68
2017-09-25T00:58:22.196Z,1015.71
2017-09-25T00:59:02.734Z,1015.67
2017-09-25T00:59:43.273Z,1015.65
2017-09-25T01:00:23.803Z,1015.67
2017-09-25T01:01:04.337Z,1015.66
2017-09-25T01:01:44.873Z,1015.68
2017-09-25T01:02:25.397Z,1015.64
2017-09-25T01:03:05.933Z,1015.66
2017-09-25T01:03:46.458Z,1015.66
2017-09-25T01:04:26.989Z,1015.65
2017-09-25T01:05:07.529Z,1015.63
2017-09-25T01:05:48.059Z,1015.65
2017-09-25T01:06:28.594Z,1015.64
2017-09-25T01:07:09.116Z,1015.63
2017-09-25T01:07:49.659Z,1015.64
2017-09-25T01:08:30.169Z,1015.65
2017-09-25T01:09:10.693Z,1015.63
2017-09-25T01:09:51.206Z,1015.63
2017-09-25T01:10:31.749Z,1015.66
2017-09-25T01:11:12.255Z,1015.63
2017-09-25T01:11:52.784Z,1015.64
2017-09-25T01:12:33.298Z,1015.61
2017-09-25T01:13:13.855Z,1015.64
2017-09-25T01:13:54.341Z,1015.62
2017-09-25T01:14:34.861Z,1015.59
2017-09-25T01:15:15.411Z,1015.6
2017-09-25T01:15:55.939Z,1015.6
2017-09-25T01:16:36.465Z,1015.6
2017-09-25T01:17:16.984Z,1015.57
2017-09-25T01:17:57.511Z,1015.56
2017-09-25T01:18:38.046Z,1015.58
2017-09-25T01:19:18.569Z,1015.6
2017-09-25T01:19:59.083Z,1015.57
2017-09-25T01:20:39.613Z,1015.53
2017-09-25T01:21:20.134Z,1015.57
2017-09-25T01:22:00.661Z,1015.59
2017-09-25T01:22:41.189Z,1015.57
2017-09-25T01:23:21.729Z,1015.56
2017-09-25T01:24:02.332Z,1015.56
2017-09-25T01:24:42.858Z,1015.57
2017-09-25T01:25:23.382Z,1015.58
2017-09-25T01:26:03.921Z,1015.56
2017-09-25T01:26:44.456Z,1015.58
2017-09-25T01:27:24.987Z,1015.55
2017-09-25T01:28:05.512Z,1015.53
2017-09-25T01:28:46.053Z,1015.54
2017-09-25T01:29:26.580Z,1015.53
2017-09-25T01:30:07.114Z,1015.52
2017-09-25T01:30:47.649Z,1015.51
2017-09-25T01:31:28.175Z,1015.53
2017-09-25T01:32:08.697Z,1015.51
2017-09-25T01:32:49.221Z,1015.49
2017-09-25T01:33:29.757Z,1015.5
2017-09-25T01:34:10.294Z,1015.47
2017-09-25T01:34:50.831Z,1015.48
2017-09-25T01:35:31.366Z,1015.49
2017-09-25T01:36:11.896Z,1015.48
2017-09-25T01:36:52.437Z,1015.46
2017-09-25T01:37:32.974Z,1015.51
2017-09-25T01:38:13.503Z,1015.48
2017-09-25T01:38:54.042Z,1015.47
2017-09-25T01:39:34.570Z,1015.47
2017-09-25T01:40:15.098Z,1015.47
2017-09-25T01:40:55.637Z,1015.46
2017-09-25T01:41:36.178Z,1015.43
2017-09-25T01:42:16.717Z,1015.47
2017-09-25T01:42:57.277Z,1015.44
2017-09-25T01:43:37.824Z,1015.44
2017-09-25T01:44:18.360Z,1015.45
2017-09-25T01:44:58.887Z,1015.44
2017-09-25T01:45:39.415Z,1015.46
2017-09-25T01:46:19.954Z,1015.48
2017-09-25T01:47:00.488Z,1015.47
2017-09-25T01:47:41.032Z,1015.47
2017-09-25T01:48:21.571Z,1015.47
2017-09-25T01:49:02.107Z,1015.44
2017-09-25T01:49:42.635Z,1015.45
2017-09-25T01:50:23.177Z,1015.43
2017-09-25T01:51:03.708Z,1015.43
2017-09-25T01:51:44.260Z,1015.44
2017-09-25T01:52:24.790Z,1015.46
2017-09-25T01:53:05.315Z,1015.41
2017-09-25T01:53:45.835Z,1015.41
2017-09-25T01:54:26.369Z,1015.37
2017-09-25T01:55:06.894Z,1015.39
2017-09-25T01:55:47.431Z,1015.42
2017-09-25T01:56:27.970Z,1015.43
2017-09-25T01:57:08.495Z,1015.38
2017-09-25T01:57:49.021Z,1015.4
2017-09-25T01:58:29.568Z,1015.35
2017-09-25T01:59:10.092Z,1015.36
2017-09-25T01:59:50.612Z,1015.36
2017-09-25T02:00:31.133Z,1015.35
2017-09-25T02:01:11.666Z,1015.35
2017-09-25T02:01:52.200Z,1015.35
2017-09-25T02:02:32.732Z,1015.36
2017-09-25T02:03:13.271Z,1015.37
2017-09-25T02:03:53.811Z,1015.39
2017-09-25T02:04:34.339Z,1015.38
2017-09-25T02:05:14.877Z,1015.35
2017-09-25T02:05:55.417Z,1015.35
2017-09-25T02:06:35.949Z,1015.39
2017-09-25T02:07:16.487Z,1015.34
2017-09-25T02:07:57.028Z,1015.34
2017-09-25T02:08:37.554Z,1015.34
2017-09-25T02:09:18.077Z,1015.35
2017-09-25T02:09:58.599Z,1015.37
2017-09-25T02:10:39.138Z,1015.35
2017-09-25T02:11:19.677Z,1015.34
2017-09-25T02:12:00.225Z,1015.35
2017-09-25T02:12:40.749Z,1015.36
2017-09-25T02:13:21.268Z,1015.36
2017-09-25T02:14:01.810Z,1015.34
2017-09-25T02:14:42.327Z,1015.33
2017-09-25T02:15:22.856Z,1015.33
2017-09-25T02:16:03.379Z,1015.33
2017-09-25T02:16:43.896Z,1015.31
2017-09-25T02:17:24.418Z,1015.27
2017-09-25T02:18:04.956Z,1015.27
2017-09-25T02:18:45.482Z,1015.26
2017-09-25T02:19:26.008Z,1015.27
2017-09-25T02:20:06.525Z,1015.27
2017-09-25T02:20:47.057Z,1015.27
2017-09-25T02:21:27.582Z,1015.26
2017-09-25T02:22:08.113Z,1015.26
2017-09-25T02:22:48.646Z,1015.24
2017-09-25T02:23:29.176Z,1015.26
2017-09-25T02:24:09.704Z,1015.3
2017-09-25T02:24:50.222Z,1015.26
2017-09-25T02:25:30.760Z,1015.24
2017-09-25T02:26:11.333Z,1015.26
2017-09-25T02:26:51.859Z,1015.26
2017-09-25T02:27:32.386Z,1015.25
2017-09-25T02:28:12.903Z,1015.25
2017-09-25T02:28:53.430Z,1015.27
2017-09-25T02:29:33.949Z,1015.27
2017-09-25T02:30:14.466Z,1015.27
2017-09-25T02:30:54.988Z,1015.26
2017-09-25T02:31:35.517Z,1015.31
2017-09-25T02:32:16.042Z,1015.29
2017-09-25T02:32:56.582Z,1015.3
2017-09-25T02:33:37.108Z,1015.3
2017-09-25T02:34:17.654Z,1015.29
2017-09-25T02:34:58.161Z,1015.29
2017-09-25T02:35:38.697Z,1015.28
2017-09-25T02:36:19.212Z,1015.25
2017-09-25T02:36:59.737Z,1015.24
2017-09-25T02:37:40.272Z,1015.24
2017-09-25T02:38:20.803Z,1015.26
2017-09-25T02:39:01.327Z,1015.28
2017-09-25T02:39:41.844Z,1015.27
2017-09-25T02:40:22.369Z,1015.29
2017-09-25T02:41:02.906Z,1015.34
2017-09-25T02:41:43.438Z,1015.33
2017-09-25T02:42:23.969Z,1015.3
2017-09-25T02:43:04.501Z,1015.35
2017-09-25T02:43:45.040Z,1015.4
2017-09-25T02:44:25.568Z,1015.41
2017-09-25T02:45:06.089Z,1015.43
2017-09-25T02:45:46.620Z,1015.42
2017-09-25T02:46:27.148Z,1015.45
2017-09-25T02:47:07.679Z,1015.4
2017-09-25T02:47:48.202Z,1015.42
2017-09-25T02:48:28.713Z,1015.42
2017-09-25T02:49:09.242Z,1015.4
2017-09-25T02:49:49.779Z,1015.39
2017-09-25T02:50:30.321Z,1015.4
2017-09-25T02:51:10.856Z,1015.4
2017-09-25T02:51:51.355Z,1015.42
2017-09-25T02:52:31.898Z,1015.41
2017-09-25T02:53:12.423Z,1015.41
2017-09-25T02:53:52.962Z,1015.4
2017-09-25T02:54:33.503Z,1015.38
2017-09-25T02:55:14.030Z,1015.38
2017-09-25T02:55:54.565Z,1015.39
2017-09-25T02:56:35.107Z,1015.38
2017-09-25T02:57:15.636Z,1015.35
2017-09-25T02:57:56.169Z,1015.36
2017-09-25T02:58:36.703Z,1015.41
2017-09-25T02:59:17.224Z,1015.4
2017-09-25T02:59:57.760Z,1015.39
2017-09-25T03:00:38.298Z,1015.36
2017-09-25T03:01:18.828Z,1015.36
2017-09-25T03:01:59.368Z,1015.37
2017-09-25T03:02:39.907Z,1015.41
2017-09-25T03:03:20.439Z,1015.4
2017-09-25T03:04:00.974Z,1015.37
2017-09-25T03:04:41.518Z,1015.34
2017-09-25T03:05:22.039Z,1015.39
2017-09-25T03:06:02.568Z,1015.34
2017-09-25T03:06:43.074Z,1015.34
2017-09-25T03:07:23.609Z,1015.37
2017-09-25T03:08:04.149Z,1015.36
2017-09-25T03:08:44.687Z,1015.35
2017-09-25T03:09:25.221Z,1015.36
2017-09-25T03:10:05.755Z,1015.34
2017-09-25T03:10:46.297Z,1015.37
2017-09-25T03:11:26.813Z,1015.32
2017-09-25T03:12:07.336Z,1015.34
2017-09-25T03:12:47.877Z,1015.34
2017-09-25T03:13:28.415Z,1015.35
2017-09-25T03:14:08.940Z,1015.34
2017-09-25T03:14:49.471Z,1015.32
2017-09-25T03:15:29.994Z,1015.35
2017-09-25T03:16:10.516Z,1015.33
2017-09-25T03:16:51.029Z,1015.36
2017-09-25T03:17:31.548Z,1015.34
2017-09-25T03:18:12.076Z,1015.32
2017-09-25T03:18:52.626Z,1015.36
2017-09-25T03:19:33.161Z,1015.33
2017-09-25T03:20:13.662Z,1015.3
2017-09-25T03:20:54.207Z,1015.33
2017-09-25T03:21:34.760Z,1015.33
2017-09-25T03:22:15.275Z,1015.33
2017-09-25T03:22:55.805Z,1015.33
2017-09-25T03:23:36.318Z,1015.29
2017-09-25T03:24:16.851Z,1015.32
2017-09-25T03:24:57.372Z,1015.3
2017-09-25T03:25:37.875Z,1015.31
2017-09-25T03:26:18.408Z,1015.33
2017-09-25T03:26:58.952Z,1015.32
2017-09-25T03:27:39.473Z,1015.34
2017-09-25T03:28:19.987Z,1015.37
2017-09-25T03:29:00.583Z,1015.33
2017-09-25T03:29:41.032Z,1015.36
2017-09-25T03:30:21.524Z,1015.34
2017-09-25T03:31:02.836Z,1015.33
2017-09-25T03:31:43.364Z,1015.36
2017-09-25T03:32:23.897Z,1015.31
2017-09-25T03:33:04.436Z,1015.35
2017-09-25T03:33:44.967Z,1015.34
2017-09-25T03:34:25.495Z,1015.28
2017-09-25T03:35:06.035Z,1015.32
2017-09-25T03:35:47.313Z,1015.28
2017-09-25T03:36:27.812Z,1015.32
2017-09-25T03:37:08.335Z,1015.31
2017-09-25T03:37:48.906Z,1015.3
2017-09-25T03:38:29.433Z,1015.28
2017-09-25T03:39:09.966Z,1015.32
2017-09-25T03:39:50.483Z,1015.3
2017-09-25T03:40:31.011Z,1015.3
2017-09-25T03:41:11.538Z,1015.33
2017-09-25T03:41:52.055Z,1015.31
2017-09-25T03:42:32.575Z,1015.31
2017-09-25T03:43:13.100Z,1015.35
2017-09-25T03:43:53.629Z,1015.32
2017-09-25T03:44:34.170Z,1015.31
2017-09-25T03:45:14.707Z,1015.31
2017-09-25T03:45:55.270Z,1015.3
2017-09-25T03:46:35.793Z,1015.3
2017-09-25T03:47:16.332Z,1015.27
2017-09-25T03:47:56.866Z,1015.28
2017-09-25T03:48:37.374Z,1015.26
2017-09-25T03:49:17.893Z,1015.26
2017-09-25T03:49:58.433Z,1015.27
2017-09-25T03:50:38.953Z,1015.23
2017-09-25T03:51:19.495Z,1015.26
2017-09-25T03:52:00.021Z,1015.23
2017-09-25T03:52:40.559Z,1015.22
2017-09-25T03:53:21.092Z,1015.23
2017-09-25T03:54:01.621Z,1015.23
2017-09-25T03:54:42.152Z,1015.23
2017-09-25T03:55:22.698Z,1015.21
2017-09-25T03:56:03.227Z,1015.22
2017-09-25T03:56:43.766Z,1015.22
2017-09-25T03:57:24.298Z,1015.21
2017-09-25T03:58:04.824Z,1015.24
2017-09-25T03:58:45.364Z,1015.21
2017-09-25T03:59:25.901Z,1015.18
2017-09-25T04:00:06.429Z,1015.21
2017-09-25T04:00:46.961Z,1015.19
2017-09-25T04:01:27.488Z,1015.19
2017-09-25T04:02:08.004Z,1015.19
2017-09-25T04:02:48.895Z,1015.19
2017-09-25T04:03:31.228Z,1015.15
2017-09-25T04:04:13.100Z,1015.17
2017-09-25T04:04:55.125Z,1015.14
2017-09-25T04:05:37.719Z,1015.14
2017-09-25T04:06:20.155Z,1015.17
2017-09-25T04:07:02.545Z,1015.17
2017-09-25T04:07:43.095Z,1015.14
2017-09-25T04:08:23.633Z,1015.12
2017-09-25T04:09:04.166Z,1015.14
2017-09-25T04:09:44.702Z,1015.1
2017-09-25T04:10:25.276Z,1015.12
2017-09-25T04:11:05.815Z,1015.1
2017-09-25T04:11:46.353Z,1015.09
2017-09-25T04:12:26.885Z,1015.12
2017-09-25T04:13:07.396Z,1015.09
2017-09-25T04:13:47.934Z,1015.12
2017-09-25T04:14:28.416Z,1015.1
2017-09-25T04:15:08.936Z,1015.12
2017-09-25T04:15:49.465Z,1015.14
2017-09-25T04:16:29.996Z,1015.13
2017-09-25T04:17:10.521Z,1015.16
2017-09-25T04:17:51.073Z,1015.18
2017-09-25T04:18:31.596Z,1015.17
2017-09-25T04:19:12.115Z,1015.11
2017-09-25T04:19:52.637Z,1015.14
2017-09-25T04:20:33.151Z,1015.15
2017-09-25T04:21:13.689Z,1015.18
2017-09-25T04:21:54.200Z,1015.16
2017-09-25T04:22:34.809Z,1015.17
2017-09-25T04:23:15.305Z,1015.13
2017-09-25T04:23:55.835Z,1015.13
2017-09-25T04:24:36.378Z,1015.12
2017-09-25T04:25:16.895Z,1015.15
2017-09-25T04:25:57.410Z,1015.14
2017-09-25T04:26:37.925Z,1015.11
2017-09-25T04:27:18.444Z,1015.1
2017-09-25T04:27:58.961Z,1015.13
2017-09-25T04:28:39.473Z,1015.11
2017-09-25T04:29:20.009Z,1015.15
2017-09-25T04:30:00.590Z,1015.13
2017-09-25T04:30:41.081Z,1015.11
2017-09-25T04:31:23.191Z,1015.13
2017-09-25T04:32:03.712Z,1015.15
2017-09-25T04:32:44.599Z,1015.13
2017-09-25T04:33:26.596Z,1015.15
2017-09-25T04:34:08.379Z,1015.13
2017-09-25T04:34:50.594Z,1015.12
2017-09-25T04:35:32.876Z,1015.12
2017-09-25T04:36:15.078Z,1015.15
2017-09-25T04:36:56.463Z,1015.09
2017-09-25T04:37:36.944Z,1015.1
2017-09-25T04:38:17.441Z,1015.09
2017-09-25T04:38:57.966Z,1015.07
2017-09-25T04:39:38.463Z,1015.07
2017-09-25T04:40:18.988Z,1015.03
2017-09-25T04:40:59.519Z,1015
2017-09-25T04:41:40.024Z,1015.02
2017-09-25T04:42:20.558Z,1015
2017-09-25T04:43:01.068Z,1015.01
2017-09-25T04:43:41.596Z,1014.96
2017-09-25T04:44:22.123Z,1014.96
2017-09-25T04:45:02.670Z,1014.95
2017-09-25T04:45:43.202Z,1014.99
2017-09-25T04:46:23.718Z,1014.99
2017-09-25T04:47:04.247Z,1015.06
2017-09-25T04:47:44.766Z,1015.01
2017-09-25T04:48:26.962Z,1015.04
2017-09-25T04:49:08.793Z,1015.02
2017-09-25T04:49:51.242Z,1015.04
2017-09-25T04:50:33.948Z,1015.09
2017-09-25T04:51:16.374Z,1015.05
2017-09-25T04:51:57.258Z,1015.09
2017-09-25T04:52:37.778Z,1015.06
2017-09-25T04:53:18.305Z,1015.09
2017-09-25T04:53:58.821Z,1015.11
2017-09-25T04:54:39.314Z,1015.13
2017-09-25T04:55:19.839Z,1015.11
2017-09-25T04:56:00.366Z,1015.12
2017-09-25T04:56:40.895Z,1015.1
2017-09-25T04:57:21.431Z,1015.15
2017-09-25T04:58:01.970Z,1015.16
2017-09-25T04:58:42.505Z,1015.14
2017-09-25T04:59:23.045Z,1015.17
2017-09-25T05:00:03.578Z,1015.13
2017-09-25T05:00:44.093Z,1015.11
2017-09-25T05:01:24.613Z,1015.13
2017-09-25T05:02:05.144Z,1015.09
2017-09-25T05:02:45.674Z,1015.09
2017-09-25T05:03:26.196Z,1015.1
2017-09-25T05:04:06.705Z,1015.09
2017-09-25T05:04:47.218Z,1015.06
2017-09-25T05:05:27.741Z,1015.07
2017-09-25T05:06:08.237Z,1015.07
2017-09-25T05:06:49.335Z,1015.07
2017-09-25T05:07:29.856Z,1015.05
2017-09-25T05:08:10.361Z,1015.09
2017-09-25T05:08:50.899Z,1015.07
2017-09-25T05:09:31.398Z,1015.06
2017-09-25T05:10:11.928Z,1015.07
2017-09-25T05:10:52.442Z,1015.12
2017-09-25T05:11:32.965Z,1015.1
2017-09-25T05:12:13.473Z,1015.11
2017-09-25T05:12:53.989Z,1015.11
2017-09-25T05:13:34.500Z,1015.11
2017-09-25T05:14:15.025Z,1015.12
2017-09-25T05:14:55.531Z,1015.11
2017-09-25T05:15:36.052Z,1015.11
2017-09-25T05:16:16.562Z,1015.13
2017-09-25T05:16:57.066Z,1015.14
2017-09-25T05:17:37.593Z,1015.13
2017-09-25T05:18:18.106Z,1015.11
2017-09-25T05:18:58.605Z,1015.13
2017-09-25T05:19:39.130Z,1015.15
2017-09-25T05:20:19.638Z,1015.11
2017-09-25T05:21:00.168Z,1015.12
2017-09-25T05:21:40.689Z,1015.11
2017-09-25T05:22:21.200Z,1015.12
2017-09-25T05:23:01.714Z,1015.12
2017-09-25T05:23:42.243Z,1015.12
2017-09-25T05:24:22.753Z,1015.1
2017-09-25T05:25:03.270Z,1015.1
2017-09-25T05:25:43.784Z,1015.08
2017-09-25T05:26:24.296Z,1015.08
2017-09-25T05:27:04.816Z,1015.06
2017-09-25T05:27:45.329Z,1015.04
2017-09-25T05:28:25.864Z,1015.05
2017-09-25T05:29:06.387Z,1015.09
2017-09-25T05:29:46.915Z,1015.08
2017-09-25T05:30:27.446Z,1015.07
2017-09-25T05:31:07.939Z,1015.04
2017-09-25T05:31:48.481Z,1015.08
2017-09-25T05:32:29.012Z,1015.09
2017-09-25T05:33:09.543Z,1015.12
2017-09-25T05:33:50.065Z,1015.08
2017-09-25T05:34:30.593Z,1015.07
2017-09-25T05:35:11.100Z,1015.11
2017-09-25T05:35:51.635Z,1015.1
2017-09-25T05:36:32.137Z,1015.1
2017-09-25T05:37:12.653Z,1015.06
2017-09-25T05:37:53.144Z,1015.07
2017-09-25T05:38:33.661Z,1015.11
2017-09-25T05:39:14.177Z,1015.08
2017-09-25T05:39:54.711Z,1015.09
2017-09-25T05:40:35.241Z,1015.09
2017-09-25T05:41:15.779Z,1015.08
2017-09-25T05:41:56.312Z,1015.11
2017-09-25T05:42:36.841Z,1015.11
2017-09-25T05:43:17.371Z,1015.12
2017-09-25T05:43:57.899Z,1015.13
2017-09-25T05:44:38.433Z,1015.16
2017-09-25T05:45:18.974Z,1015.18
2017-09-25T05:45:59.469Z,1015.19
2017-09-25T05:46:40.012Z,1015.18
2017-09-25T05:47:20.550Z,1015.19
2017-09-25T05:48:01.080Z,1015.23
2017-09-25T05:48:41.612Z,1015.24
2017-09-25T05:49:22.142Z,1015.22
2017-09-25T05:50:02.644Z,1015.19
2017-09-25T05:50:43.169Z,1015.23
2017-09-25T05:51:23.690Z,1015.2
2017-09-25T05:52:04.209Z,1015.2
2017-09-25T05:52:44.732Z,1015.21
2017-09-25T05:53:25.265Z,1015.14
2017-09-25T05:54:05.797Z,1015.18
2017-09-25T05:54:46.325Z,1015.14
2017-09-25T05:55:26.858Z,1015.18
2017-09-25T05:56:07.374Z,1015.16
2017-09-25T05:56:47.886Z,1015.13
2017-09-25T05:57:28.417Z,1015.14
2017-09-25T05:58:08.935Z,1015.13
2017-09-25T05:58:49.450Z,1015.12
2017-09-25T05:59:29.966Z,1015.13
2017-09-25T06:00:10.470Z,1015.1
2017-09-25T06:00:51.018Z,1015.1
2017-09-25T06:01:31.539Z,1015.08
2017-09-25T06:02:12.071Z,1015.08
2017-09-25T06:02:52.581Z,1015.07
2017-09-25T06:03:33.114Z,1015.08
2017-09-25T06:04:13.642Z,1015.05
2017-09-25T06:04:54.159Z,1015.08
2017-09-25T06:05:34.690Z,1015.1
2017-09-25T06:06:15.236Z,1015.07
2017-09-25T06:06:55.775Z,1015.11
2017-09-25T06:07:36.312Z,1015.1
2017-09-25T06:08:16.834Z,1015.11
2017-09-25T06:08:57.360Z,1015.08
2017-09-25T06:09:37.887Z,1015.07
2017-09-25T06:10:18.440Z,1015.04
2017-09-25T06:10:58.958Z,1015.08
2017-09-25T06:11:39.481Z,1015.09
2017-09-25T06:12:20.014Z,1015.08
2017-09-25T06:13:00.548Z,1015.11
2017-09-25T06:13:41.089Z,1015.13
2017-09-25T06:14:21.633Z,1015.14
2017-09-25T06:15:02.169Z,1015.13
2017-09-25T06:15:42.704Z,1015.16
2017-09-25T06:16:23.234Z,1015.15
2017-09-25T06:17:03.752Z,1015.16
2017-09-25T06:17:44.273Z,1015.19
2017-09-25T06:18:24.780Z,1015.21
2017-09-25T06:19:05.300Z,1015.22
2017-09-25T06:19:45.827Z,1015.17
2017-09-25T06:20:26.354Z,1015.21
2017-09-25T06:21:06.875Z,1015.23
2017-09-25T06:21:47.395Z,1015.21
2017-09-25T06:22:27.889Z,1015.25
2017-09-25T06:23:08.427Z,1015.19
2017-09-25T06:23:49.019Z,1015.21
2017-09-25T06:24:29.517Z,1015.22
2017-09-25T06:25:10.046Z,1015.24
2017-09-25T06:25:50.569Z,1015.21
2017-09-25T06:26:31.079Z,1015.21
2017-09-25T06:27:11.606Z,1015.21
2017-09-25T06:27:52.143Z,1015.18
2017-09-25T06:28:32.685Z,1015.2
2017-09-25T06:29:13.223Z,1015.2
2017-09-25T06:29:53.766Z,1015.22
2017-09-25T06:30:34.295Z,1015.21
2017-09-25T06:31:14.820Z,1015.21
2017-09-25T06:31:55.356Z,1015.19
2017-09-25T06:32:35.892Z,1015.21
2017-09-25T06:33:16.430Z,1015.21
2017-09-25T06:33:56.965Z,1015.18
2017-09-25T06:34:37.495Z,1015.2
2017-09-25T06:35:18.028Z,1015.22
2017-09-25T06:35:58.607Z,1015.14
2017-09-25T06:36:39.141Z,1015.16
2017-09-25T06:37:19.677Z,1015.17
2017-09-25T06:38:00.207Z,1015.16
2017-09-25T06:38:40.761Z,1015.16
2017-09-25T06:39:21.301Z,1015.15
2017-09-25T06:40:01.831Z,1015.17
2017-09-25T06:40:42.356Z,1015.18
2017-09-25T06:41:22.889Z,1015.19
2017-09-25T06:42:03.420Z,1015.21
2017-09-25T06:42:43.958Z,1015.19
2017-09-25T06:43:24.495Z,1015.2
2017-09-25T06:44:05.037Z,1015.24
2017-09-25T06:44:45.581Z,1015.25
2017-09-25T06:45:26.117Z,1015.23
2017-09-25T06:46:06.650Z,1015.24
2017-09-25T06:46:47.182Z,1015.26
2017-09-25T06:47:28.645Z,1015.24
2017-09-25T06:48:09.186Z,1015.22
2017-09-25T06:48:49.729Z,1015.28
2017-09-25T06:49:30.246Z,1015.28
2017-09-25T06:50:10.761Z,1015.27
2017-09-25T06:50:51.285Z,1015.26
2017-09-25T06:51:31.808Z,1015.29
2017-09-25T06:52:12.343Z,1015.23
2017-09-25T06:52:52.865Z,1015.29
2017-09-25T06:53:33.392Z,1015.28
2017-09-25T06:54:13.925Z,1015.29
2017-09-25T06:54:54.468Z,1015.29
2017-09-25T06:55:34.996Z,1015.31
2017-09-25T06:56:15.524Z,1015.3
2017-09-25T06:56:56.063Z,1015.31
2017-09-25T06:57:36.593Z,1015.28
2017-09-25T06:58:17.135Z,1015.31
2017-09-25T06:58:57.680Z,1015.31
2017-09-25T06:59:38.219Z,1015.27
2017-09-25T07:00:18.764Z,1015.31
2017-09-25T07:00:59.290Z,1015.29
2017-09-25T07:01:39.826Z,1015.33
2017-09-25T07:02:20.358Z,1015.27
2017-09-25T07:03:00.895Z,1015.28
2017-09-25T07:03:41.434Z,1015.26
2017-09-25T07:04:21.974Z,1015.29
2017-09-25T07:05:03.436Z,1015.31
2017-09-25T07:05:43.100Z,1015.28
2017-09-25T07:06:23.651Z,1015.3
2017-09-25T07:07:04.187Z,1015.28
2017-09-25T07:07:44.740Z,1015.26
2017-09-25T07:08:25.289Z,1015.27
2017-09-25T07:09:05.823Z,1015.27
2017-09-25T07:09:46.363Z,1015.26
2017-09-25T07:10:26.895Z,1015.27
2017-09-25T07:11:07.426Z,1015.27
2017-09-25T07:11:47.980Z,1015.28
2017-09-25T07:12:28.509Z,1015.28
2017-09-25T07:13:09.050Z,1015.29
2017-09-25T07:13:49.586Z,1015.27
2017-09-25T07:14:30.117Z,1015.3
2017-09-25T07:15:10.653Z,1015.27
2017-09-25T07:15:51.205Z,1015.3
2017-09-25T07:16:31.718Z,1015.3
2017-09-25T07:17:12.262Z,1015.29
2017-09-25T07:17:52.803Z,1015.29
2017-09-25T07:18:33.360Z,1015.29
2017-09-25T07:19:13.900Z,1015.33
2017-09-25T07:19:54.441Z,1015.32
2017-09-25T07:20:34.983Z,1015.29
2017-09-25T07:21:15.541Z,1015.32
2017-09-25T07:21:56.087Z,1015.32
2017-09-25T07:22:36.630Z,1015.33
2017-09-25T07:23:17.160Z,1015.34
2017-09-25T07:23:57.707Z,1015.31
2017-09-25T07:24:38.238Z,1015.31
2017-09-25T07:25:18.775Z,1015.34
2017-09-25T07:25:59.323Z,1015.29
2017-09-25T07:26:39.861Z,1015.33
2017-09-25T07:27:20.398Z,1015.35
2017-09-25T07:28:00.947Z,1015.36
2017-09-25T07:28:41.483Z,1015.33
2017-09-25T07:29:22.019Z,1015.33
2017-09-25T07:30:02.547Z,1015.37
2017-09-25T07:30:43.101Z,1015.37
2017-09-25T07:31:23.630Z,1015.39
2017-09-25T07:32:04.172Z,1015.38
2017-09-25T07:32:44.717Z,1015.37
2017-09-25T07:33:25.260Z,1015.4
2017-09-25T07:34:05.802Z,1015.37
2017-09-25T07:34:46.356Z,1015.38
2017-09-25T07:35:26.887Z,1015.37
2017-09-25T07:36:07.411Z,1015.4
2017-09-25T07:36:47.936Z,1015.4
2017-09-25T07:37:28.472Z,1015.38
2017-09-25T07:38:09.012Z,1015.41
2017-09-25T07:38:49.548Z,1015.39
2017-09-25T07:39:30.076Z,1015.42
2017-09-25T07:40:10.591Z,1015.44
2017-09-25T07:40:51.134Z,1015.43
2017-09-25T07:41:31.678Z,1015.41
2017-09-25T07:42:12.215Z,1015.42
2017-09-25T07:42:52.761Z,1015.39
2017-09-25T07:43:33.311Z,1015.4
2017-09-25T07:45:32.790Z,1015.38
2017-09-25T07:46:13.327Z,1015.34
2017-09-25T07:46:53.858Z,1015.38
2017-09-25T07:47:34.397Z,1015.36
2017-09-25T07:48:14.928Z,1015.35
2017-09-25T07:48:55.474Z,1015.32
2017-09-25T07:49:36.003Z,1015.34
2017-09-25T07:50:16.530Z,1015.33
2017-09-25T07:50:57.062Z,1015.32
2017-09-25T07:51:37.582Z,1015.31
2017-09-25T07:52:18.107Z,1015.29
2017-09-25T07:52:58.633Z,1015.34
2017-09-25T07:53:39.144Z,1015.31
2017-09-25T07:54:19.661Z,1015.3
2017-09-25T07:55:00.174Z,1015.37
2017-09-25T07:55:40.703Z,1015.33
2017-09-25T07:56:21.220Z,1015.29
2017-09-25T07:57:01.758Z,1015.34
2017-09-25T07:57:42.278Z,1015.33
2017-09-25T07:58:22.813Z,1015.33
2017-09-25T07:59:03.341Z,1015.33
2017-09-25T07:59:43.882Z,1015.32
2017-09-25T08:00:24.416Z,1015.34
2017-09-25T08:01:04.944Z,1015.31
2017-09-25T08:01:45.487Z,1015.31
2017-09-25T08:02:26.019Z,1015.32
2017-09-25T08:03:06.548Z,1015.33
2017-09-25T08:03:47.071Z,1015.3
2017-09-25T08:04:27.590Z,1015.31
2017-09-25T08:05:08.116Z,1015.31
2017-09-25T08:05:48.647Z,1015.33
2017-09-25T08:06:29.175Z,1015.3
2017-09-25T08:07:09.712Z,1015.3
2017-09-25T08:07:50.224Z,1015.27
2017-09-25T08:08:30.756Z,1015.3
2017-09-25T08:09:11.290Z,1015.22
2017-09-25T08:09:51.811Z,1015.27
2017-09-25T08:10:32.342Z,1015.24
2017-09-25T08:11:12.871Z,1015.25
2017-09-25T08:11:53.478Z,1015.22
2017-09-25T08:12:34.006Z,1015.24
2017-09-25T08:13:14.530Z,1015.28
2017-09-25T08:13:55.073Z,1015.24